createdAt,value
2023-03-12T00:01:22.418Z,6.73
2023-03-12T00:03:51.722Z,6.69
2023-03-12T00:06:20.576Z,6.65
2023-03-12T00:08:56.224Z,6.60
2023-03-12T00:11:24.925Z,6.57
2023-03-12T00:13:54.843Z,6.56
2023-03-12T00:16:23.433Z,6.53
2023-03-12T00:18:52.612Z,6.52
2023-03-12T00:21:22.038Z,6.48
2023-03-12T00:23:54.447Z,6.43
2023-03-12T00:26:22.841Z,6.37
2023-03-12T00:28:51.618Z,6.32
2023-03-12T00:31:22.106Z,6.29
2023-03-12T00:33:50.409Z,6.27
2023-03-12T00:36:21.465Z,6.25
2023-03-12T00:38:54.068Z,6.24
2023-03-12T00:41:22.507Z,6.20
2023-03-12T00:43:51.156Z,6.15
2023-03-12T00:46:19.715Z,6.11
2023-03-12T00:48:47.979Z,6.06
2023-03-12T00:51:16.378Z,6.02
2023-03-12T00:53:44.792Z,5.97
2023-03-12T00:56:13.060Z,5.92
2023-03-12T00:58:43.062Z,5.87
2023-03-12T01:01:11.595Z,5.81
2023-03-12T01:03:40.403Z,5.75
2023-03-12T01:06:09.458Z,5.69
2023-03-12T01:08:38.712Z,5.67
2023-03-12T01:11:07.633Z,5.65
2023-03-12T01:13:36.035Z,5.62
2023-03-12T01:16:04.627Z,5.58
2023-03-12T01:18:32.941Z,5.54
2023-03-12T01:21:01.209Z,5.49
2023-03-12T01:23:29.789Z,5.43
2023-03-12T01:25:58.644Z,5.36
2023-03-12T01:28:26.960Z,5.29
2023-03-12T01:30:55.291Z,5.22
2023-03-12T01:33:24.091Z,5.15
2023-03-12T01:35:52.547Z,5.09
2023-03-12T01:38:21.081Z,5.05
2023-03-12T01:40:49.559Z,5.00
2023-03-12T01:43:34.864Z,4.97
2023-03-12T01:46:12.572Z,4.94
2023-03-12T01:48:54.067Z,4.91
2023-03-12T01:51:22.426Z,4.87
2023-03-12T01:53:51.445Z,4.83
2023-03-12T01:56:20.065Z,4.80
2023-03-12T01:58:51.309Z,4.76
2023-03-12T02:01:19.951Z,4.72
2023-03-12T02:03:50.564Z,4.67
2023-03-12T02:06:20.161Z,4.63
2023-03-12T02:08:48.505Z,4.57
2023-03-12T02:11:17.309Z,4.50
2023-03-12T02:13:46.107Z,4.43
2023-03-12T02:16:16.275Z,4.36
2023-03-12T02:18:46.125Z,4.27
2023-03-12T02:21:27.649Z,4.19
2023-03-12T02:24:07.556Z,4.11
2023-03-12T02:26:37.098Z,4.03
2023-03-12T02:29:05.657Z,3.97
2023-03-12T02:31:45.343Z,3.92
2023-03-12T02:34:14.570Z,3.86
2023-03-12T02:36:43.612Z,3.81
2023-03-12T02:39:12.535Z,3.78
2023-03-12T02:41:49.402Z,3.76
2023-03-12T02:44:19.983Z,3.73
2023-03-12T02:46:51.718Z,3.69
2023-03-12T02:49:22.844Z,3.63
2023-03-12T02:51:51.338Z,3.58
2023-03-12T02:54:19.899Z,3.55
2023-03-12T02:56:48.787Z,3.52
2023-03-12T02:59:18.110Z,3.48
2023-03-12T03:01:47.297Z,3.45
2023-03-12T03:04:15.691Z,3.42
2023-03-12T03:06:44.142Z,3.40
2023-03-12T03:09:12.849Z,3.36
2023-03-12T03:11:42.740Z,3.32
2023-03-12T03:14:11.400Z,3.27
2023-03-12T03:16:40.154Z,3.22
2023-03-12T03:19:09.188Z,3.21
2023-03-12T03:21:37.508Z,3.18
2023-03-12T03:24:06.411Z,3.15
2023-03-12T03:26:36.293Z,3.13
2023-03-12T03:29:05.065Z,3.11
2023-03-12T03:31:34.744Z,3.07
2023-03-12T03:34:03.741Z,3.07
2023-03-12T03:36:32.376Z,3.03
2023-03-12T03:39:07.483Z,2.96
2023-03-12T03:41:35.736Z,2.87
2023-03-12T03:44:05.503Z,2.78
2023-03-12T03:46:38.107Z,2.70
2023-03-12T03:49:08.631Z,2.64
2023-03-12T03:51:37.554Z,2.58
2023-03-12T03:54:09.985Z,2.52
2023-03-12T03:56:38.446Z,2.46
2023-03-12T03:59:13.377Z,2.41
2023-03-12T04:01:42.941Z,2.36
2023-03-12T04:04:11.327Z,2.32
2023-03-12T04:06:40.048Z,2.28
2023-03-12T04:09:09.277Z,2.26
2023-03-12T04:11:39.205Z,2.25
2023-03-12T04:14:08.533Z,2.24
2023-03-12T04:16:38.698Z,2.22
2023-03-12T04:19:07.131Z,2.17
2023-03-12T04:21:35.547Z,2.15
2023-03-12T04:24:04.405Z,2.14
2023-03-12T04:26:34.776Z,2.11
2023-03-12T04:29:05.033Z,2.12
2023-03-12T04:31:34.600Z,2.12
2023-03-12T04:34:02.964Z,2.11
2023-03-12T04:36:33.957Z,2.10
2023-03-12T04:39:07.176Z,2.04
2023-03-12T04:41:36.858Z,2.03
2023-03-12T04:44:12.657Z,2.06
2023-03-12T04:46:42.385Z,2.10
2023-03-12T04:49:13.014Z,2.15
2023-03-12T04:51:41.944Z,2.17
2023-03-12T04:54:12.748Z,2.19
2023-03-12T04:56:41.881Z,2.20
2023-03-12T04:59:11.340Z,2.21
2023-03-12T05:01:41.493Z,2.24
2023-03-12T05:04:15.012Z,2.27
2023-03-12T05:06:44.457Z,2.29
2023-03-12T05:09:13.264Z,2.30
2023-03-12T05:11:41.728Z,2.30
2023-03-12T05:14:14.534Z,2.32
2023-03-12T05:16:43.658Z,2.32
2023-03-12T05:19:12.637Z,2.37
2023-03-12T05:21:43.817Z,2.38
2023-03-12T05:24:12.786Z,2.37
2023-03-12T05:26:41.876Z,2.37
2023-03-12T05:29:13.021Z,2.36
2023-03-12T05:31:46.570Z,2.36
2023-03-12T05:34:15.256Z,2.37
2023-03-12T05:36:45.309Z,2.34
2023-03-12T05:39:14.691Z,2.32
2023-03-12T05:41:43.173Z,2.35
2023-03-12T05:44:16.259Z,2.40
2023-03-12T05:46:47.414Z,2.45
2023-03-12T05:49:16.670Z,2.51
2023-03-12T05:51:47.514Z,2.55
2023-03-12T05:54:16.801Z,2.59
2023-03-12T05:56:45.783Z,2.62
2023-03-12T05:59:14.898Z,2.66
2023-03-12T06:01:43.555Z,2.70
2023-03-12T06:04:11.942Z,2.76
2023-03-12T06:06:41.453Z,2.80
2023-03-12T06:09:09.915Z,2.85
2023-03-12T06:11:39.413Z,2.89
2023-03-12T06:14:07.759Z,2.93
2023-03-12T06:16:37.330Z,2.99
2023-03-12T06:19:06.153Z,3.03
2023-03-12T06:21:42.530Z,3.09
2023-03-12T06:24:12.065Z,3.13
2023-03-12T06:27:00.648Z,3.14
2023-03-12T06:29:29.034Z,3.17
2023-03-12T06:31:57.555Z,3.26
2023-03-12T06:34:35.064Z,3.33
2023-03-12T06:37:04.596Z,3.36
2023-03-12T06:39:33.110Z,3.36
2023-03-12T06:42:02.611Z,3.29
2023-03-12T06:44:31.694Z,3.24
2023-03-12T06:47:00.051Z,3.27
2023-03-12T06:49:32.343Z,3.34
2023-03-12T06:52:00.723Z,3.44
2023-03-12T06:54:29.469Z,3.54
2023-03-12T06:56:59.572Z,3.58
2023-03-12T06:59:28.773Z,3.61
2023-03-12T07:01:57.303Z,3.67
2023-03-12T07:04:25.673Z,3.66
2023-03-12T07:06:54.335Z,3.60
2023-03-12T07:09:28.546Z,3.63
2023-03-12T07:11:56.941Z,3.73
2023-03-12T07:14:25.662Z,3.80
2023-03-12T07:16:54.536Z,3.81
2023-03-12T07:19:23.478Z,3.74
2023-03-12T07:21:51.860Z,3.65
2023-03-12T07:24:22.910Z,3.59
2023-03-12T07:26:51.768Z,3.55
2023-03-12T07:29:20.386Z,3.52
2023-03-12T07:31:49.723Z,3.58
2023-03-12T07:34:18.465Z,3.72
2023-03-12T07:36:50.792Z,3.90
2023-03-12T07:39:19.791Z,4.05
2023-03-12T07:41:48.114Z,4.16
2023-03-12T07:44:16.818Z,4.28
2023-03-12T07:46:45.813Z,4.37
2023-03-12T07:49:15.970Z,4.35
2023-03-12T07:51:44.650Z,4.38
2023-03-12T07:54:14.089Z,4.45
2023-03-12T07:56:43.115Z,4.50
2023-03-12T07:59:12.535Z,4.46
2023-03-12T08:01:44.669Z,4.37
2023-03-12T08:04:14.829Z,4.41
2023-03-12T08:06:50.218Z,4.52
2023-03-12T08:09:20.174Z,4.60
2023-03-12T08:11:49.475Z,4.59
2023-03-12T08:14:18.476Z,4.57
2023-03-12T08:16:47.706Z,4.65
2023-03-12T08:19:19.538Z,4.79
2023-03-12T08:21:48.797Z,4.89
2023-03-12T08:24:17.683Z,4.92
2023-03-12T08:26:47.519Z,4.91
2023-03-12T08:29:16.596Z,4.89
2023-03-12T08:32:03.284Z,4.87
2023-03-12T08:34:34.149Z,4.84
2023-03-12T08:37:06.142Z,4.81
2023-03-12T08:39:34.670Z,4.87
2023-03-12T08:42:04.074Z,5.06
2023-03-12T08:44:32.800Z,5.21
2023-03-12T08:47:01.287Z,5.18
2023-03-12T08:49:29.940Z,5.01
2023-03-12T08:51:58.581Z,4.82
2023-03-12T08:54:26.915Z,4.74
2023-03-12T08:56:55.629Z,4.70
2023-03-12T08:59:25.148Z,4.69
2023-03-12T09:01:53.785Z,4.75
2023-03-12T09:04:22.744Z,4.74
2023-03-12T09:06:51.161Z,4.74
2023-03-12T09:09:20.137Z,4.81
2023-03-12T09:11:52.564Z,4.92
2023-03-12T09:17:09.820Z,5.01
2023-03-12T09:19:39.960Z,4.98
2023-03-12T09:22:10.119Z,4.91
2023-03-12T09:24:38.598Z,4.87
2023-03-12T09:27:07.038Z,4.83
2023-03-12T09:29:41.409Z,4.80
2023-03-12T09:32:16.943Z,4.87
2023-03-12T09:34:46.073Z,4.93
2023-03-12T09:37:15.557Z,4.90
2023-03-12T09:39:43.766Z,4.85
2023-03-12T09:42:20.714Z,4.78
2023-03-12T09:44:49.170Z,4.85
2023-03-12T09:47:31.106Z,5.00
2023-03-12T09:50:07.135Z,5.15
2023-03-12T09:52:40.788Z,5.26
2023-03-12T09:55:16.247Z,5.23
2023-03-12T09:57:44.964Z,5.19
2023-03-12T10:00:15.911Z,5.17
2023-03-12T10:03:03.064Z,5.11
2023-03-12T10:06:03.732Z,4.99
2023-03-12T10:08:52.986Z,4.96
2023-03-12T10:11:45.005Z,5.01
2023-03-12T10:14:26.318Z,5.13
2023-03-12T10:16:54.945Z,5.25
2023-03-12T10:19:34.844Z,5.30
2023-03-12T10:22:22.559Z,5.26
2023-03-12T10:24:56.978Z,5.30
2023-03-12T10:27:27.863Z,5.38
2023-03-12T10:29:56.120Z,5.36
2023-03-12T10:32:38.313Z,5.31
2023-03-12T10:35:21.562Z,5.28
2023-03-12T10:37:57.473Z,5.34
2023-03-12T10:40:30.710Z,5.40
2023-03-12T10:43:04.412Z,5.36
2023-03-12T10:45:39.280Z,5.34
2023-03-12T10:48:11.920Z,5.33
2023-03-12T10:50:41.733Z,5.34
2023-03-12T10:53:22.734Z,5.35
2023-03-12T10:56:09.958Z,5.26
2023-03-12T10:58:42.071Z,5.19
2023-03-12T11:01:23.636Z,5.17
2023-03-12T11:03:52.579Z,5.16
2023-03-12T11:06:25.946Z,5.15
2023-03-12T11:09:16.650Z,5.14
2023-03-12T11:11:47.789Z,5.08
2023-03-12T11:14:19.266Z,5.07
2023-03-12T11:16:49.437Z,5.13
2023-03-12T11:19:28.791Z,5.22
2023-03-12T11:21:59.451Z,5.29
2023-03-12T11:24:27.960Z,5.34
2023-03-12T11:27:00.497Z,5.41
2023-03-12T11:29:40.526Z,5.40
2023-03-12T11:32:39.097Z,5.32
2023-03-12T11:35:12.129Z,5.29
2023-03-12T11:37:59.315Z,5.35
2023-03-12T11:40:36.746Z,5.37
2023-03-12T11:43:44.152Z,5.31
2023-03-12T11:46:23.404Z,5.20
2023-03-12T11:49:00.896Z,5.10
2023-03-12T11:51:53.913Z,5.01
2023-03-12T11:54:42.457Z,4.91
2023-03-12T11:57:10.673Z,4.86
2023-03-12T12:00:07.261Z,4.89
2023-03-12T12:02:49.295Z,4.92
2023-03-12T12:05:49.999Z,4.92
2023-03-12T12:08:37.190Z,4.95
2023-03-12T12:11:32.054Z,5.04
2023-03-12T12:14:13.664Z,5.11
2023-03-12T12:17:03.456Z,5.17
2023-03-12T12:20:00.197Z,5.20
2023-03-12T12:22:46.883Z,5.23
2023-03-12T12:25:26.094Z,5.32
2023-03-12T12:28:03.640Z,5.49
2023-03-12T12:30:54.681Z,5.63
2023-03-12T12:33:36.553Z,5.67
2023-03-12T12:36:10.034Z,5.67
2023-03-12T12:38:42.197Z,5.72
2023-03-12T12:41:14.246Z,5.82
2023-03-12T12:43:50.634Z,5.90
2023-03-12T12:46:26.091Z,5.98
2023-03-12T12:49:05.800Z,5.99
2023-03-12T12:51:37.242Z,5.92
2023-03-12T12:54:13.056Z,5.81
2023-03-12T12:57:01.433Z,5.77
2023-03-12T13:00:07.632Z,5.75
2023-03-12T13:02:39.022Z,5.80
2023-03-12T13:05:26.750Z,5.86
2023-03-12T13:07:55.662Z,5.97
2023-03-12T13:10:33.059Z,6.03
2023-03-12T13:13:20.103Z,6.03
2023-03-12T13:15:50.755Z,6.04
2023-03-12T13:18:28.486Z,6.08
2023-03-12T13:21:43.747Z,6.16
2023-03-12T13:24:26.826Z,6.24
2023-03-12T13:27:24.641Z,6.22
2023-03-12T13:29:57.487Z,6.13
2023-03-12T13:32:38.983Z,6.13
2023-03-12T13:35:16.132Z,6.20
2023-03-12T13:37:53.824Z,6.30
2023-03-12T13:40:51.857Z,6.36
2023-03-12T13:43:41.691Z,6.42
2023-03-12T13:46:16.339Z,6.51
2023-03-12T13:48:48.045Z,6.54
2023-03-12T13:51:24.120Z,6.52
2023-03-12T13:53:55.344Z,6.54
2023-03-12T13:56:29.122Z,6.62
2023-03-12T13:59:01.044Z,6.70
2023-03-12T14:01:31.725Z,6.75
2023-03-12T14:04:02.292Z,6.71
2023-03-12T14:06:31.909Z,6.59
2023-03-12T14:09:19.461Z,6.47
2023-03-12T14:12:09.060Z,6.39
2023-03-12T14:14:51.271Z,6.31
2023-03-12T14:17:20.506Z,6.25
2023-03-12T14:19:55.800Z,6.19
2023-03-12T14:22:25.457Z,6.13
2023-03-12T14:24:55.614Z,6.09
2023-03-12T14:27:33.395Z,6.08
2023-03-12T14:30:12.099Z,6.08
2023-03-12T14:32:40.616Z,6.05
2023-03-12T14:35:22.900Z,6.03
2023-03-12T14:38:17.072Z,6.00
2023-03-12T14:40:55.862Z,5.99
2023-03-12T14:43:29.742Z,5.97
2023-03-12T14:46:14.716Z,5.96
2023-03-12T14:48:43.847Z,5.94
2023-03-12T14:51:26.803Z,5.93
2023-03-12T14:53:55.552Z,5.92
2023-03-12T14:56:25.988Z,5.93
2023-03-12T14:58:54.831Z,5.93
2023-03-12T15:01:30.531Z,5.92
2023-03-12T15:04:03.490Z,5.89
2023-03-12T15:06:43.146Z,5.86
2023-03-12T15:09:17.108Z,5.83
2023-03-12T15:12:10.507Z,5.81
2023-03-12T15:14:40.595Z,5.76
2023-03-12T15:17:22.149Z,5.75
2023-03-12T15:19:54.940Z,5.73
2023-03-12T15:22:24.984Z,5.70
2023-03-12T15:24:55.080Z,5.67
2023-03-12T15:27:28.893Z,5.63
2023-03-12T15:30:00.997Z,5.59
2023-03-12T15:32:32.331Z,5.55
2023-03-12T15:35:01.595Z,5.52
2023-03-12T15:37:41.440Z,5.48
2023-03-12T15:40:26.790Z,5.45
2023-03-12T15:42:59.342Z,5.41
2023-03-12T15:45:40.370Z,5.37
2023-03-12T15:48:22.808Z,5.33
2023-03-12T15:50:51.519Z,5.29
2023-03-12T15:53:34.095Z,5.24
2023-03-12T15:56:04.356Z,5.20
2023-03-12T15:58:37.742Z,5.16
2023-03-12T16:01:14.302Z,5.09
2023-03-12T16:03:45.696Z,5.02
2023-03-12T16:06:25.522Z,4.95
2023-03-12T16:09:00.302Z,4.88
2023-03-12T16:11:31.011Z,4.81
2023-03-12T16:14:07.353Z,4.76
2023-03-12T16:16:37.363Z,4.70
2023-03-12T16:19:16.385Z,4.66
2023-03-12T16:21:45.077Z,4.61
2023-03-12T16:24:16.678Z,4.56
2023-03-12T16:26:53.535Z,4.52
2023-03-12T16:29:22.256Z,4.49
2023-03-12T16:31:53.005Z,4.46
2023-03-12T16:34:22.107Z,4.44
2023-03-12T16:36:51.608Z,4.43
2023-03-12T16:39:20.462Z,4.43
2023-03-12T16:41:49.053Z,4.42
2023-03-12T16:44:19.277Z,4.41
2023-03-12T16:46:47.945Z,4.38
2023-03-12T16:49:21.024Z,4.36
2023-03-12T16:51:49.517Z,4.32
2023-03-12T16:54:17.885Z,4.29
2023-03-12T16:56:48.334Z,4.28
2023-03-12T16:59:27.361Z,4.27
2023-03-12T17:01:56.537Z,4.26
2023-03-12T17:04:32.234Z,4.24
2023-03-12T17:07:01.363Z,4.21
2023-03-12T17:09:30.012Z,4.17
2023-03-12T17:11:58.883Z,4.13
2023-03-12T17:14:28.386Z,4.09
2023-03-12T17:16:57.346Z,4.07
2023-03-12T17:19:25.841Z,4.06
2023-03-12T17:21:54.236Z,4.06
2023-03-12T17:24:28.219Z,4.07
2023-03-12T17:26:58.354Z,4.09
2023-03-12T17:29:27.520Z,4.13
2023-03-12T17:31:56.014Z,4.18
2023-03-12T17:34:24.826Z,4.21
2023-03-12T17:36:56.202Z,4.24
2023-03-12T17:39:25.108Z,4.27
2023-03-12T17:41:53.824Z,4.28
2023-03-12T17:44:24.034Z,4.27
2023-03-12T17:46:59.752Z,4.26
2023-03-12T17:49:29.543Z,4.27
2023-03-12T17:51:58.681Z,4.28
2023-03-12T17:54:36.746Z,4.30
2023-03-12T17:57:07.465Z,4.32
2023-03-12T17:59:36.592Z,4.34
2023-03-12T18:02:08.482Z,4.34
2023-03-12T18:04:39.599Z,4.31
2023-03-12T18:07:09.161Z,4.28
2023-03-12T18:09:37.702Z,4.24
2023-03-12T18:12:07.840Z,4.19
2023-03-12T18:14:40.328Z,4.12
2023-03-12T18:17:09.545Z,4.06
2023-03-12T18:19:42.187Z,3.99
2023-03-12T18:22:14.306Z,3.90
2023-03-12T18:24:43.618Z,3.83
2023-03-12T18:27:13.068Z,3.75
2023-03-12T18:29:42.617Z,3.64
2023-03-12T18:32:12.232Z,3.53
2023-03-12T18:34:42.790Z,3.42
2023-03-12T18:37:12.084Z,3.32
2023-03-12T18:39:43.924Z,3.24
2023-03-12T18:42:14.148Z,3.16
2023-03-12T18:44:45.091Z,3.13
2023-03-12T18:47:14.441Z,3.11
2023-03-12T18:49:43.228Z,3.10
2023-03-12T18:52:11.999Z,3.08
2023-03-12T18:54:42.971Z,3.05
2023-03-12T18:57:12.643Z,3.05
2023-03-12T18:59:45.581Z,3.06
2023-03-12T19:02:16.173Z,3.09
2023-03-12T19:04:46.064Z,3.09
2023-03-12T19:07:14.609Z,3.07
2023-03-12T19:09:44.316Z,3.05
2023-03-12T19:12:13.596Z,3.06
2023-03-12T19:14:42.405Z,3.06
2023-03-12T19:17:11.568Z,3.08
2023-03-12T19:19:43.450Z,3.09
2023-03-12T19:22:13.806Z,3.10
2023-03-12T19:24:45.854Z,3.15
2023-03-12T19:27:21.331Z,3.22
2023-03-12T19:29:50.466Z,3.24
2023-03-12T19:32:19.020Z,3.25
2023-03-12T19:34:51.804Z,3.25
2023-03-12T19:37:20.809Z,3.24
2023-03-12T19:39:49.208Z,3.22
2023-03-12T19:42:19.190Z,3.20
2023-03-12T19:44:49.539Z,3.14
2023-03-12T19:47:22.188Z,3.08
2023-03-12T19:49:51.501Z,3.01
2023-03-12T19:52:21.880Z,2.94
2023-03-12T19:55:03.178Z,2.88
2023-03-12T19:57:34.509Z,2.84
2023-03-12T20:00:11.422Z,2.79
2023-03-12T20:02:40.250Z,2.75
2023-03-12T20:05:09.588Z,2.71
2023-03-12T20:07:39.643Z,2.70
2023-03-12T20:10:10.424Z,2.70
2023-03-12T20:12:41.108Z,2.71
2023-03-12T20:15:13.495Z,2.70
2023-03-12T20:17:49.075Z,2.67
2023-03-12T20:20:20.472Z,2.64
2023-03-12T20:22:51.331Z,2.64
2023-03-12T20:25:20.457Z,2.68
2023-03-12T20:27:49.970Z,2.75
2023-03-12T20:30:22.480Z,2.82
2023-03-12T20:32:51.519Z,2.92
2023-03-12T20:35:20.537Z,3.04
2023-03-12T20:37:50.516Z,3.17
2023-03-12T20:40:20.080Z,3.29
2023-03-12T20:42:50.228Z,3.40
2023-03-12T20:45:19.028Z,3.49
2023-03-12T20:47:49.690Z,3.57
2023-03-12T20:50:19.557Z,3.64
2023-03-12T20:52:48.349Z,3.69
2023-03-12T20:55:17.041Z,3.75
2023-03-12T20:57:45.634Z,3.80
2023-03-12T21:00:14.381Z,3.81
2023-03-12T21:02:43.061Z,3.81
2023-03-12T21:05:14.024Z,3.81
2023-03-12T21:07:43.195Z,3.81
2023-03-12T21:10:13.528Z,3.83
2023-03-12T21:12:47.679Z,3.83
2023-03-12T21:15:16.486Z,3.85
2023-03-12T21:17:45.552Z,3.87
2023-03-12T21:20:17.500Z,3.88
2023-03-12T21:22:47.695Z,3.90
2023-03-12T21:25:16.482Z,3.92
2023-03-12T21:27:51.067Z,3.92
2023-03-12T21:30:20.846Z,3.93
2023-03-12T21:32:55.269Z,3.94
2023-03-12T21:35:24.298Z,3.94
2023-03-12T21:37:52.781Z,3.93
2023-03-12T21:40:21.723Z,3.92
2023-03-12T21:42:51.005Z,3.93
2023-03-12T21:45:22.847Z,3.94
2023-03-12T21:47:51.634Z,3.96
2023-03-12T21:50:21.742Z,3.97
2023-03-12T21:52:51.147Z,3.99
2023-03-12T21:55:21.558Z,4.01
2023-03-12T21:57:51.713Z,4.01
2023-03-12T22:00:21.919Z,4.00
2023-03-12T22:02:54.179Z,3.97
2023-03-12T22:05:22.913Z,3.94
2023-03-12T22:07:52.401Z,3.90
2023-03-12T22:10:21.285Z,3.87
2023-03-12T22:12:51.202Z,3.86
2023-03-12T22:15:20.204Z,3.86
2023-03-12T22:17:51.796Z,3.84
2023-03-12T22:20:21.777Z,3.81
2023-03-12T22:22:53.886Z,3.78
2023-03-12T22:25:22.533Z,3.76
2023-03-12T22:27:51.043Z,3.73
2023-03-12T22:30:21.825Z,3.70
2023-03-12T22:32:53.350Z,3.69
2023-03-12T22:35:26.124Z,3.67
2023-03-12T22:37:56.474Z,3.66
2023-03-12T22:40:31.353Z,3.63
2023-03-12T22:42:59.803Z,3.60
2023-03-12T22:45:28.388Z,3.56
2023-03-12T22:47:57.759Z,3.50
2023-03-12T22:50:26.296Z,3.42
2023-03-12T22:52:55.785Z,3.35
2023-03-12T22:55:24.714Z,3.29
2023-03-12T22:57:53.453Z,3.24
2023-03-12T23:00:23.707Z,3.17
2023-03-12T23:02:52.292Z,3.10
2023-03-12T23:05:23.230Z,3.04
2023-03-12T23:07:53.149Z,2.96
2023-03-12T23:10:24.679Z,2.88
2023-03-12T23:12:57.741Z,2.80
2023-03-12T23:15:35.052Z,2.72
2023-03-12T23:18:08.786Z,2.63
2023-03-12T23:20:37.266Z,2.57
2023-03-12T23:23:05.751Z,2.51
2023-03-12T23:25:36.805Z,2.44
2023-03-12T23:28:05.280Z,2.35
2023-03-12T23:30:35.127Z,2.21
2023-03-12T23:33:04.048Z,2.10
2023-03-12T23:35:32.800Z,2.03
2023-03-12T23:38:01.466Z,1.96
2023-03-12T23:40:30.283Z,1.87
2023-03-12T23:42:59.718Z,1.82
2023-03-12T23:45:28.186Z,1.78
2023-03-12T23:47:56.767Z,1.75
2023-03-12T23:50:25.442Z,1.71
2023-03-12T23:52:54.253Z,1.65
2023-03-12T23:55:23.034Z,1.62
2023-03-12T23:57:51.546Z,1.57
